createdAt,value
2023-02-26T00:01:25.984Z,4.30
2023-02-26T00:04:29.380Z,3.95
2023-02-26T00:07:31.231Z,4.15
2023-02-26T00:10:33.653Z,4.10
2023-02-26T00:13:36.819Z,3.58
2023-02-26T00:16:39.211Z,3.90
2023-02-26T00:19:42.846Z,4.03
2023-02-26T00:22:45.193Z,3.80
2023-02-26T00:25:47.408Z,3.95
2023-02-26T00:28:49.780Z,3.90
2023-02-26T00:31:52.098Z,3.72
2023-02-26T00:34:56.273Z,3.33
2023-02-26T00:38:01.330Z,4.22
2023-02-26T00:41:03.542Z,3.70
2023-02-26T00:44:06.082Z,3.92
2023-02-26T00:47:17.111Z,3.95
2023-02-26T00:50:21.991Z,3.88
2023-02-26T00:53:29.092Z,3.60
2023-02-26T00:56:30.865Z,3.92
2023-02-26T00:59:32.700Z,3.67
2023-02-26T01:02:35.255Z,3.90
2023-02-26T01:05:39.249Z,3.90
2023-02-26T01:08:47.752Z,3.28
2023-02-26T01:11:50.375Z,3.53
2023-02-26T01:14:52.720Z,3.50
2023-02-26T01:18:02.857Z,3.42
2023-02-26T01:21:10.296Z,2.95
2023-02-26T01:24:16.816Z,3.08
2023-02-26T01:27:18.898Z,3.38
2023-02-26T01:34:30.944Z,3.25
2023-02-26T01:37:47.491Z,2.88
2023-02-26T01:41:13.226Z,3.50
2023-02-26T01:44:23.695Z,3.33
2023-02-26T01:47:35.442Z,3.38
2023-02-26T01:50:39.430Z,3.20
2023-02-26T01:53:42.626Z,2.90
2023-02-26T01:56:47.711Z,2.72
2023-02-26T01:59:52.657Z,2.85
2023-02-26T02:02:54.749Z,2.75
2023-02-26T02:06:00.662Z,2.67
2023-02-26T02:09:05.617Z,2.75
2023-02-26T02:12:18.314Z,2.45
2023-02-26T02:15:26.890Z,2.97
2023-02-26T02:18:38.294Z,2.55
2023-02-26T02:22:15.122Z,2.22
2023-02-26T02:25:40.415Z,2.08
2023-02-26T02:29:02.292Z,2.40
2023-02-26T02:32:08.520Z,2.75
2023-02-26T02:35:15.486Z,2.63
2023-02-26T02:38:23.501Z,2.47
2023-02-26T02:41:29.529Z,2.83
2023-02-26T02:44:35.958Z,2.60
2023-02-26T02:47:43.200Z,2.45
2023-02-26T02:50:49.713Z,3.03
2023-02-26T02:53:55.564Z,2.35
2023-02-26T02:57:04.556Z,3.00
2023-02-26T03:03:20.382Z,2.15
2023-02-26T03:06:22.322Z,2.50
2023-02-26T03:09:24.345Z,2.55
2023-02-26T03:12:26.681Z,2.53
2023-02-26T03:15:36.966Z,2.60
2023-02-26T03:18:53.819Z,2.13
2023-02-26T03:22:03.219Z,2.10
2023-02-26T03:25:09.840Z,2.80
2023-02-26T03:28:19.149Z,2.47
2023-02-26T03:31:27.028Z,2.63
2023-02-26T03:34:37.446Z,2.80
2023-02-26T03:37:43.491Z,2.42
2023-02-26T03:40:49.916Z,2.70
2023-02-26T03:43:56.782Z,2.40
2023-02-26T03:47:02.951Z,2.42
2023-02-26T03:50:08.859Z,2.25
2023-02-26T03:53:15.499Z,2.47
2023-02-26T03:56:23.246Z,2.33
2023-02-26T03:59:25.300Z,2.47
2023-02-26T04:02:33.306Z,2.80
2023-02-26T04:05:40.324Z,2.30
2023-02-26T04:08:43.068Z,2.33
2023-02-26T04:11:46.293Z,2.30
2023-02-26T04:14:48.190Z,2.47
2023-02-26T04:17:49.997Z,2.38
2023-02-26T04:20:53.160Z,2.40
2023-02-26T04:23:54.928Z,2.10
2023-02-26T04:26:56.771Z,2.28
2023-02-26T04:29:58.632Z,2.58
2023-02-26T04:33:00.445Z,2.45
2023-02-26T04:36:04.396Z,2.47
2023-02-26T04:39:06.274Z,2.38
2023-02-26T04:42:08.203Z,2.38
2023-02-26T04:45:11.538Z,2.70
2023-02-26T04:48:13.971Z,2.45
2023-02-26T04:51:17.337Z,2.65
2023-02-26T04:54:20.057Z,3.03
2023-02-26T04:57:21.890Z,2.95
2023-02-26T05:00:23.871Z,2.80
2023-02-26T05:03:26.812Z,2.80
2023-02-26T05:06:30.228Z,3.60
2023-02-26T05:09:32.068Z,3.38
2023-02-26T05:12:34.072Z,3.35
2023-02-26T05:15:36.070Z,3.58
2023-02-26T05:18:39.611Z,3.47
2023-02-26T05:21:42.769Z,3.47
2023-02-26T05:24:46.339Z,3.70
2023-02-26T05:27:48.382Z,3.45
2023-02-26T05:30:50.402Z,4.13
2023-02-26T05:33:52.351Z,4.38
2023-02-26T05:36:57.048Z,4.00
2023-02-26T05:39:58.935Z,4.20
2023-02-26T05:43:00.920Z,4.28
2023-02-26T05:46:02.966Z,4.43
2023-02-26T05:49:04.799Z,5.13
2023-02-26T05:52:08.185Z,5.10
2023-02-26T05:55:10.888Z,5.55
2023-02-26T05:58:13.089Z,4.93
2023-02-26T06:01:14.918Z,5.22
2023-02-26T06:04:16.874Z,5.07
2023-02-26T06:07:20.017Z,4.80
2023-02-26T06:10:23.126Z,5.30
2023-02-26T06:13:24.901Z,5.22
2023-02-26T06:16:27.493Z,5.13
2023-02-26T06:19:29.698Z,5.32
2023-02-26T06:22:34.444Z,4.95
2023-02-26T06:25:36.219Z,4.93
2023-02-26T06:28:38.469Z,5.15
2023-02-26T06:31:40.315Z,5.55
2023-02-26T06:34:45.888Z,5.13
2023-02-26T06:37:49.329Z,5.47
2023-02-26T06:40:51.407Z,4.65
2023-02-26T06:43:53.239Z,4.88
2023-02-26T06:46:56.125Z,5.15
2023-02-26T06:49:57.955Z,4.88
2023-02-26T06:53:02.583Z,5.07
2023-02-26T06:56:05.235Z,4.60
2023-02-26T06:59:07.100Z,4.55
2023-02-26T07:02:16.391Z,4.40
2023-02-26T07:05:19.807Z,4.47
2023-02-26T07:08:23.546Z,4.72
2023-02-26T07:11:25.490Z,4.22
2023-02-26T07:14:27.358Z,4.10
2023-02-26T07:17:29.431Z,4.53
2023-02-26T07:20:31.609Z,4.45
2023-02-26T07:23:35.154Z,4.55
2023-02-26T07:26:37.464Z,4.40
2023-02-26T07:29:39.374Z,4.43
2023-02-26T07:32:43.201Z,3.20
2023-02-26T07:35:45.063Z,2.75
2023-02-26T07:38:49.815Z,3.20
2023-02-26T07:41:51.619Z,2.97
2023-02-26T07:44:53.596Z,3.13
2023-02-26T07:47:55.577Z,3.40
2023-02-26T07:50:57.689Z,3.85
2023-02-26T07:54:00.907Z,3.10
2023-02-26T07:57:05.238Z,3.40
2023-02-26T08:00:10.800Z,3.70
2023-02-26T08:03:12.679Z,3.15
2023-02-26T08:06:18.125Z,3.20
2023-02-26T08:09:22.097Z,2.47
2023-02-26T08:12:23.950Z,2.60
2023-02-26T08:15:28.037Z,3.38
2023-02-26T08:18:29.812Z,3.10
2023-02-26T08:21:31.704Z,3.40
2023-02-26T08:24:36.144Z,2.95
2023-02-26T08:27:39.343Z,2.63
2023-02-26T08:30:41.349Z,2.22
2023-02-26T08:33:43.712Z,2.10
2023-02-26T08:36:45.853Z,2.42
2023-02-26T08:39:49.036Z,3.10
2023-02-26T08:42:51.118Z,1.52
2023-02-26T08:45:54.056Z,2.55
2023-02-26T08:48:59.411Z,2.63
2023-02-26T08:52:01.447Z,3.10
2023-02-26T08:55:05.165Z,2.90
2023-02-26T08:58:08.015Z,3.60
2023-02-26T09:01:10.088Z,3.53
2023-02-26T09:04:12.352Z,3.40
2023-02-26T09:07:14.169Z,2.63
2023-02-26T09:10:18.751Z,2.72
2023-02-26T09:13:20.565Z,2.60
2023-02-26T09:16:24.204Z,2.45
2023-02-26T09:19:26.261Z,3.20
2023-02-26T09:22:28.809Z,3.78
2023-02-26T09:25:32.154Z,3.25
2023-02-26T09:28:35.240Z,2.83
2023-02-26T09:31:37.234Z,3.03
2023-02-26T09:34:39.415Z,2.90
2023-02-26T09:37:41.235Z,2.20
2023-02-26T09:40:48.674Z,2.60
2023-02-26T09:44:06.920Z,2.80
2023-02-26T09:47:17.477Z,2.25
2023-02-26T09:50:24.423Z,2.60
2023-02-26T09:53:28.838Z,2.50
2023-02-26T09:56:35.656Z,2.65
2023-02-26T09:59:37.726Z,3.35
2023-02-26T10:02:50.787Z,3.35
2023-02-26T10:06:13.421Z,3.20
2023-02-26T10:09:30.068Z,3.15
2023-02-26T10:12:36.409Z,3.25
2023-02-26T10:15:42.212Z,2.60
2023-02-26T10:18:47.938Z,2.30
2023-02-26T10:21:54.469Z,2.30
2023-02-26T10:25:02.111Z,2.08
2023-02-26T10:28:30.779Z,2.25
2023-02-26T10:31:38.415Z,2.30
2023-02-26T10:34:47.924Z,2.60
2023-02-26T10:37:56.123Z,2.45
2023-02-26T10:41:02.382Z,2.70
2023-02-26T10:44:15.532Z,2.03
2023-02-26T10:47:30.699Z,2.35
2023-02-26T10:50:33.186Z,2.60
2023-02-26T10:53:40.596Z,2.67
2023-02-26T10:56:43.228Z,2.35
2023-02-26T10:59:46.568Z,2.20
2023-02-26T11:02:51.213Z,2.20
2023-02-26T11:05:53.526Z,2.22
2023-02-26T11:08:58.535Z,1.92
2023-02-26T11:12:06.666Z,2.10
2023-02-26T11:15:15.661Z,2.13
2023-02-26T11:21:29.668Z,5.07
2023-02-26T11:24:35.633Z,3.25
2023-02-26T11:27:39.762Z,2.47
2023-02-26T11:30:45.546Z,3.53
2023-02-26T11:33:50.517Z,2.47
2023-02-26T11:36:57.038Z,2.33
2023-02-26T11:40:03.821Z,3.15
2023-02-26T11:43:08.176Z,2.80
2023-02-26T11:46:13.783Z,4.10
2023-02-26T11:49:19.579Z,1.90
2023-02-26T11:52:28.862Z,2.10
2023-02-26T11:55:36.553Z,1.70
2023-02-26T11:58:41.476Z,1.42
2023-02-26T12:01:45.505Z,1.52
2023-02-26T12:04:51.543Z,1.80
2023-02-26T12:07:55.489Z,1.58
2023-02-26T12:11:13.560Z,1.75
2023-02-26T12:14:48.951Z,1.33
2023-02-26T12:18:15.836Z,1.55
2023-02-26T12:21:36.824Z,1.70
2023-02-26T12:24:58.151Z,2.03
2023-02-26T12:28:23.476Z,1.90
2023-02-26T12:32:16.638Z,1.75
2023-02-26T12:35:46.869Z,1.60
2023-02-26T12:38:58.718Z,1.30
2023-02-26T12:42:14.304Z,1.30
2023-02-26T12:45:33.946Z,1.02
2023-02-26T12:52:32.249Z,1.40
2023-02-26T12:55:47.032Z,1.20
2023-02-26T12:58:59.961Z,1.08
2023-02-26T13:02:28.916Z,0.95
2023-02-26T13:05:50.316Z,1.10
2023-02-26T13:09:02.779Z,0.80
2023-02-26T13:12:17.151Z,1.10
2023-02-26T13:15:42.026Z,1.00
2023-02-26T13:18:49.194Z,1.17
2023-02-26T13:21:57.368Z,1.25
2023-02-26T13:25:06.041Z,0.90
2023-02-26T13:28:22.650Z,1.40
2023-02-26T13:31:31.651Z,1.17
2023-02-26T13:34:41.727Z,1.55
2023-02-26T13:37:49.910Z,1.10
2023-02-26T13:41:03.345Z,1.15
2023-02-26T13:44:22.355Z,1.13
2023-02-26T13:47:53.400Z,0.75
2023-02-26T13:51:05.801Z,0.95
2023-02-26T13:54:32.697Z,1.02
2023-02-26T13:57:44.511Z,0.93
2023-02-26T14:00:57.913Z,0.82
2023-02-26T14:04:32.179Z,1.10
2023-02-26T14:07:49.146Z,0.98
2023-02-26T14:10:57.645Z,1.20
2023-02-26T14:14:24.814Z,0.60
2023-02-26T14:17:39.291Z,0.85
2023-02-26T14:20:41.828Z,0.70
2023-02-26T14:23:49.776Z,0.82
2023-02-26T14:27:07.669Z,0.80
2023-02-26T14:30:28.617Z,1.00
2023-02-26T14:33:38.099Z,0.90
2023-02-26T14:36:47.959Z,0.77
2023-02-26T14:39:59.144Z,1.00
2023-02-26T14:43:04.263Z,0.95
2023-02-26T14:46:10.829Z,1.00
2023-02-26T14:49:18.555Z,0.90
2023-02-26T14:52:46.953Z,1.25
2023-02-26T14:56:04.821Z,1.13
2023-02-26T14:59:23.072Z,1.00
2023-02-26T15:02:39.547Z,1.67
2023-02-26T15:06:01.722Z,1.30
2023-02-26T15:09:17.634Z,1.48
2023-02-26T15:12:36.271Z,1.15
2023-02-26T15:15:48.590Z,1.20
2023-02-26T15:19:06.959Z,1.40
2023-02-26T15:22:24.895Z,0.90
2023-02-26T15:25:32.755Z,1.33
2023-02-26T15:28:39.155Z,1.17
2023-02-26T15:31:44.528Z,1.23
2023-02-26T15:34:49.247Z,1.42
2023-02-26T15:37:54.633Z,1.80
2023-02-26T15:41:04.414Z,1.48
2023-02-26T15:44:10.056Z,1.40
2023-02-26T15:47:19.267Z,1.63
2023-02-26T15:50:27.295Z,1.23
2023-02-26T15:53:34.758Z,1.38
2023-02-26T15:56:41.448Z,1.35
2023-02-26T15:59:45.908Z,1.30
2023-02-26T16:02:50.663Z,1.60
2023-02-26T16:05:58.341Z,1.50
2023-02-26T16:09:01.461Z,2.00
2023-02-26T16:12:08.619Z,1.55
2023-02-26T16:15:16.496Z,1.48
2023-02-26T16:18:36.876Z,1.20
2023-02-26T16:21:44.349Z,1.48
2023-02-26T16:24:52.039Z,1.30
2023-02-26T16:27:59.826Z,1.30
2023-02-26T16:31:04.958Z,1.08
2023-02-26T16:34:28.688Z,1.17
2023-02-26T16:37:36.511Z,1.35
2023-02-26T16:40:42.442Z,1.80
2023-02-26T16:43:54.599Z,1.10
2023-02-26T16:47:05.310Z,3.10
2023-02-26T16:50:18.465Z,1.50
2023-02-26T16:53:36.052Z,1.02
2023-02-26T16:56:42.719Z,1.42
2023-02-26T16:59:52.017Z,3.97
2023-02-26T17:06:04.446Z,1.65
2023-02-26T17:09:35.568Z,1.85
2023-02-26T17:12:46.616Z,1.60
2023-02-26T17:15:50.948Z,1.70
2023-02-26T17:18:56.209Z,1.55
2023-02-26T17:22:00.554Z,1.50
2023-02-26T17:25:05.698Z,1.73
2023-02-26T17:28:16.948Z,1.27
2023-02-26T17:31:19.837Z,1.45
2023-02-26T17:34:23.398Z,1.75
2023-02-26T17:37:32.155Z,3.50
2023-02-26T17:40:38.714Z,6.13
2023-02-26T17:43:41.877Z,6.78
2023-02-26T17:46:46.264Z,5.38
2023-02-26T17:49:49.883Z,3.03
2023-02-26T17:52:53.424Z,1.58
2023-02-26T17:55:59.588Z,1.42
2023-02-26T17:59:02.858Z,1.38
2023-02-26T18:02:17.169Z,1.63
2023-02-26T18:05:21.759Z,2.03
2023-02-26T18:08:27.731Z,1.77
2023-02-26T18:11:34.118Z,1.95
2023-02-26T18:14:38.875Z,3.00
2023-02-26T18:17:45.317Z,6.35
2023-02-26T18:20:49.299Z,3.00
2023-02-26T18:23:54.127Z,3.58
2023-02-26T18:27:02.760Z,2.45
2023-02-26T18:30:07.909Z,2.25
2023-02-26T18:33:13.417Z,2.20
2023-02-26T18:36:20.925Z,2.08
2023-02-26T18:39:24.102Z,2.38
2023-02-26T18:42:29.857Z,2.50
2023-02-26T18:45:33.436Z,1.90
2023-02-26T18:48:42.276Z,2.50
2023-02-26T18:51:45.788Z,2.97
2023-02-26T18:54:49.393Z,2.00
2023-02-26T18:57:54.635Z,2.58
2023-02-26T19:01:00.799Z,2.03
2023-02-26T19:04:05.203Z,2.15
2023-02-26T19:07:10.513Z,2.03
2023-02-26T19:10:13.422Z,2.33
2023-02-26T19:13:19.736Z,2.13
2023-02-26T19:16:24.775Z,2.10
2023-02-26T19:19:29.584Z,2.47
2023-02-26T19:22:32.563Z,2.35
2023-02-26T19:25:41.222Z,1.92
2023-02-26T19:28:47.610Z,2.17
2023-02-26T19:31:50.921Z,1.70
2023-02-26T19:34:55.339Z,1.90
2023-02-26T19:37:59.507Z,1.88
2023-02-26T19:41:02.915Z,1.90
2023-02-26T19:44:07.193Z,2.10
2023-02-26T19:47:09.925Z,2.20
2023-02-26T19:50:14.523Z,1.67
2023-02-26T19:53:19.967Z,1.95
2023-02-26T19:56:25.532Z,2.25
2023-02-26T19:59:30.484Z,2.17
2023-02-26T20:02:37.459Z,2.40
2023-02-26T20:05:41.837Z,2.42
2023-02-26T20:08:45.133Z,1.77
2023-02-26T20:11:48.385Z,1.98
2023-02-26T20:14:53.919Z,2.08
2023-02-26T20:17:57.630Z,2.20
2023-02-26T20:21:01.943Z,1.70
2023-02-26T20:24:06.578Z,2.70
2023-02-26T20:27:09.869Z,2.70
2023-02-26T20:30:15.110Z,1.95
2023-02-26T20:33:19.429Z,2.30
2023-02-26T20:36:23.330Z,2.08
2023-02-26T20:39:26.155Z,2.22
2023-02-26T20:42:29.246Z,2.50
2023-02-26T20:45:33.818Z,2.00
2023-02-26T20:48:38.360Z,2.10
2023-02-26T20:51:42.361Z,2.20
2023-02-26T20:54:47.645Z,2.72
2023-02-26T20:57:59.928Z,2.00
2023-02-26T21:01:06.305Z,1.90
2023-02-26T21:04:10.705Z,1.88
2023-02-26T21:07:15.454Z,1.92
2023-02-26T21:10:20.555Z,1.92
2023-02-26T21:13:24.155Z,2.17
2023-02-26T21:16:30.395Z,1.92
2023-02-26T21:19:35.166Z,1.75
2023-02-26T21:22:38.143Z,1.90
2023-02-26T21:25:41.864Z,1.75
2023-02-26T21:28:44.999Z,1.90
2023-02-26T21:31:49.648Z,2.00
2023-02-26T21:34:54.195Z,1.88
2023-02-26T21:37:56.324Z,2.30
2023-02-26T21:40:58.143Z,2.10
2023-02-26T21:44:03.780Z,1.85
2023-02-26T21:47:07.424Z,2.40
2023-02-26T21:50:10.644Z,2.60
2023-02-26T21:53:13.820Z,1.98
2023-02-26T21:56:16.142Z,2.17
2023-02-26T21:59:18.174Z,2.42
2023-02-26T22:02:24.900Z,2.40
2023-02-26T22:05:29.990Z,2.47
2023-02-26T22:08:32.061Z,1.75
2023-02-26T22:11:33.917Z,2.47
2023-02-26T22:14:37.822Z,2.10
2023-02-26T22:17:41.634Z,2.25
2023-02-26T22:20:43.460Z,2.50
2023-02-26T22:23:45.245Z,2.10
2023-02-26T22:26:48.164Z,2.22
2023-02-26T22:29:50.330Z,2.53
2023-02-26T22:32:53.508Z,2.72
2023-02-26T22:35:57.314Z,2.80
2023-02-26T22:38:59.341Z,2.50
2023-02-26T22:42:03.415Z,2.80
2023-02-26T22:45:06.429Z,2.80
2023-02-26T22:48:09.726Z,2.90
2023-02-26T22:51:13.128Z,3.25
2023-02-26T22:54:15.033Z,3.45
2023-02-26T22:57:19.405Z,3.50
2023-02-26T23:00:22.603Z,3.40
2023-02-26T23:03:28.287Z,3.50
2023-02-26T23:06:31.409Z,3.50
2023-02-26T23:09:33.398Z,3.72
2023-02-26T23:12:39.181Z,3.35
2023-02-26T23:15:41.484Z,4.15
2023-02-26T23:18:45.792Z,4.13
2023-02-26T23:21:47.920Z,4.05
2023-02-26T23:24:49.905Z,4.60
2023-02-26T23:27:52.201Z,4.32
2023-02-26T23:30:54.116Z,4.45
2023-02-26T23:33:59.834Z,4.65
2023-02-26T23:37:01.852Z,4.65
2023-02-26T23:40:04.926Z,4.57
2023-02-26T23:43:07.193Z,4.43
2023-02-26T23:46:09.075Z,5.20
2023-02-26T23:49:12.885Z,4.43
2023-02-26T23:52:15.004Z,5.47
2023-02-26T23:55:24.970Z,4.60
2023-02-26T23:58:27.929Z,4.53
